sensor_id;sensor_type;location;lat;lon;timestamp;P1;durP1;ratioP1;P2;durP2;ratioP2
61471;SDS011;47337;54.068;12.114;2023-04-15T00:01:23;87.10;;;31.15;;
61471;SDS011;47337;54.068;12.114;2023-04-15T00:03:52;74.03;;;28.85;;
61471;SDS011;47337;54.068;12.114;2023-04-15T00:06:21;78.10;;;29.20;;
61471;SDS011;47337;54.068;12.114;2023-04-15T00:08:47;78.25;;;30.10;;
61471;SDS011;47337;54.068;12.114;2023-04-15T00:11:14;82.10;;;31.13;;
61471;SDS011;47337;54.068;12.114;2023-04-15T00:13:40;87.75;;;31.63;;
61471;SDS011;47337;54.068;12.114;2023-04-15T00:16:06;78.07;;;30.27;;
61471;SDS011;47337;54.068;12.114;2023-04-15T00:18:33;71.47;;;29.83;;
61471;SDS011;47337;54.068;12.114;2023-04-15T00:20:59;85.13;;;30.52;;
61471;SDS011;47337;54.068;12.114;2023-04-15T00:23:27;77.28;;;28.52;;
61471;SDS011;47337;54.068;12.114;2023-04-15T00:25:55;76.10;;;29.70;;
61471;SDS011;47337;54.068;12.114;2023-04-15T00:28:21;89.28;;;27.70;;
61471;SDS011;47337;54.068;12.114;2023-04-15T00:30:51;72.45;;;27.05;;
61471;SDS011;47337;54.068;12.114;2023-04-15T00:33:16;85.57;;;29.52;;
61471;SDS011;47337;54.068;12.114;2023-04-15T00:35:43;81.90;;;29.10;;
61471;SDS011;47337;54.068;12.114;2023-04-15T00:38:11;86.20;;;30.63;;
61471;SDS011;47337;54.068;12.114;2023-04-15T00:40:37;87.57;;;29.50;;
61471;SDS011;47337;54.068;12.114;2023-04-15T00:43:02;87.20;;;30.27;;
61471;SDS011;47337;54.068;12.114;2023-04-15T00:45:31;81.55;;;28.90;;
61471;SDS011;47337;54.068;12.114;2023-04-15T00:47:57;95.80;;;32.78;;
61471;SDS011;47337;54.068;12.114;2023-04-15T00:50:23;91.13;;;31.85;;
61471;SDS011;47337;54.068;12.114;2023-04-15T00:52:48;95.10;;;30.48;;
61471;SDS011;47337;54.068;12.114;2023-04-15T00:55:13;101.25;;;31.88;;
61471;SDS011;47337;54.068;12.114;2023-04-15T00:57:39;87.55;;;32.35;;
61471;SDS011;47337;54.068;12.114;2023-04-15T01:00:05;98.45;;;32.03;;
61471;SDS011;47337;54.068;12.114;2023-04-15T01:02:35;95.57;;;31.05;;
61471;SDS011;47337;54.068;12.114;2023-04-15T01:05:06;104.53;;;30.58;;
61471;SDS011;47337;54.068;12.114;2023-04-15T01:07:33;104.60;;;33.03;;
61471;SDS011;47337;54.068;12.114;2023-04-15T01:09:59;109.00;;;31.65;;
61471;SDS011;47337;54.068;12.114;2023-04-15T01:12:27;105.50;;;31.70;;
61471;SDS011;47337;54.068;12.114;2023-04-15T01:14:55;107.57;;;32.42;;
61471;SDS011;47337;54.068;12.114;2023-04-15T01:17:23;92.30;;;29.63;;
61471;SDS011;47337;54.068;12.114;2023-04-15T01:19:53;104.30;;;32.28;;
61471;SDS011;47337;54.068;12.114;2023-04-15T01:22:23;102.35;;;31.92;;
61471;SDS011;47337;54.068;12.114;2023-04-15T01:24:54;92.00;;;31.02;;
61471;SDS011;47337;54.068;12.114;2023-04-15T01:27:31;94.85;;;31.20;;
61471;SDS011;47337;54.068;12.114;2023-04-15T01:29:59;100.50;;;31.27;;
61471;SDS011;47337;54.068;12.114;2023-04-15T01:32:24;97.88;;;31.17;;
61471;SDS011;47337;54.068;12.114;2023-04-15T01:34:52;96.97;;;31.50;;
61471;SDS011;47337;54.068;12.114;2023-04-15T01:37:18;91.68;;;28.75;;
61471;SDS011;47337;54.068;12.114;2023-04-15T01:39:43;94.03;;;30.70;;
61471;SDS011;47337;54.068;12.114;2023-04-15T01:42:09;81.32;;;30.05;;
61471;SDS011;47337;54.068;12.114;2023-04-15T01:44:35;90.03;;;31.17;;
61471;SDS011;47337;54.068;12.114;2023-04-15T01:47:00;82.95;;;30.77;;
61471;SDS011;47337;54.068;12.114;2023-04-15T01:49:25;82.95;;;29.63;;
61471;SDS011;47337;54.068;12.114;2023-04-15T01:51:51;82.00;;;28.75;;
61471;SDS011;47337;54.068;12.114;2023-04-15T01:54:18;86.60;;;28.70;;
61471;SDS011;47337;54.068;12.114;2023-04-15T01:56:43;76.55;;;29.00;;
61471;SDS011;47337;54.068;12.114;2023-04-15T01:59:13;88.15;;;29.33;;
61471;SDS011;47337;54.068;12.114;2023-04-15T02:01:39;102.85;;;31.40;;
61471;SDS011;47337;54.068;12.114;2023-04-15T02:04:04;111.60;;;32.78;;
61471;SDS011;47337;54.068;12.114;2023-04-15T02:06:40;110.55;;;31.95;;
61471;SDS011;47337;54.068;12.114;2023-04-15T02:09:06;104.28;;;31.83;;
61471;SDS011;47337;54.068;12.114;2023-04-15T02:11:31;91.43;;;30.40;;
61471;SDS011;47337;54.068;12.114;2023-04-15T02:14:00;108.78;;;32.25;;
61471;SDS011;47337;54.068;12.114;2023-04-15T02:16:28;98.78;;;33.22;;
61471;SDS011;47337;54.068;12.114;2023-04-15T02:18:56;122.93;;;34.08;;
61471;SDS011;47337;54.068;12.114;2023-04-15T02:21:21;112.80;;;33.30;;
61471;SDS011;47337;54.068;12.114;2023-04-15T02:23:50;106.10;;;33.83;;
61471;SDS011;47337;54.068;12.114;2023-04-15T02:26:18;104.32;;;33.08;;
61471;SDS011;47337;54.068;12.114;2023-04-15T02:28:49;99.63;;;34.00;;
61471;SDS011;47337;54.068;12.114;2023-04-15T02:31:18;92.88;;;32.53;;
61471;SDS011;47337;54.068;12.114;2023-04-15T02:33:43;98.68;;;34.10;;
61471;SDS011;47337;54.068;12.114;2023-04-15T02:36:12;104.90;;;34.47;;
61471;SDS011;47337;54.068;12.114;2023-04-15T02:38:39;101.25;;;33.00;;
61471;SDS011;47337;54.068;12.114;2023-04-15T02:41:07;103.93;;;33.15;;
61471;SDS011;47337;54.068;12.114;2023-04-15T02:43:34;93.68;;;33.13;;
61471;SDS011;47337;54.068;12.114;2023-04-15T02:45:59;100.32;;;33.50;;
61471;SDS011;47337;54.068;12.114;2023-04-15T02:48:28;100.80;;;33.85;;
61471;SDS011;47337;54.068;12.114;2023-04-15T02:50:53;91.95;;;31.90;;
61471;SDS011;47337;54.068;12.114;2023-04-15T02:53:35;91.80;;;34.60;;
61471;SDS011;47337;54.068;12.114;2023-04-15T02:56:00;96.97;;;33.75;;
61471;SDS011;47337;54.068;12.114;2023-04-15T02:58:26;98.90;;;34.15;;
61471;SDS011;47337;54.068;12.114;2023-04-15T03:00:51;90.28;;;33.45;;
61471;SDS011;47337;54.068;12.114;2023-04-15T03:03:16;93.78;;;32.83;;
61471;SDS011;47337;54.068;12.114;2023-04-15T03:05:43;90.03;;;34.92;;
61471;SDS011;47337;54.068;12.114;2023-04-15T03:08:08;87.35;;;33.50;;
61471;SDS011;47337;54.068;12.114;2023-04-15T03:10:33;90.82;;;33.35;;
61471;SDS011;47337;54.068;12.114;2023-04-15T03:12:59;94.85;;;35.65;;
61471;SDS011;47337;54.068;12.114;2023-04-15T03:15:25;90.90;;;34.53;;
61471;SDS011;47337;54.068;12.114;2023-04-15T03:17:52;99.35;;;34.40;;
61471;SDS011;47337;54.068;12.114;2023-04-15T03:20:18;92.05;;;32.80;;
61471;SDS011;47337;54.068;12.114;2023-04-15T03:22:46;79.72;;;31.95;;
61471;SDS011;47337;54.068;12.114;2023-04-15T03:25:11;87.53;;;31.27;;
61471;SDS011;47337;54.068;12.114;2023-04-15T03:27:37;88.78;;;32.45;;
61471;SDS011;47337;54.068;12.114;2023-04-15T03:30:03;86.28;;;34.75;;
61471;SDS011;47337;54.068;12.114;2023-04-15T03:32:29;90.47;;;34.42;;
61471;SDS011;47337;54.068;12.114;2023-04-15T03:34:59;84.95;;;33.03;;
61471;SDS011;47337;54.068;12.114;2023-04-15T03:37:24;98.68;;;34.50;;
61471;SDS011;47337;54.068;12.114;2023-04-15T03:39:50;86.78;;;32.53;;
61471;SDS011;47337;54.068;12.114;2023-04-15T03:42:15;90.93;;;33.63;;
61471;SDS011;47337;54.068;12.114;2023-04-15T03:44:43;89.80;;;34.90;;
61471;SDS011;47337;54.068;12.114;2023-04-15T03:47:08;97.13;;;35.05;;
61471;SDS011;47337;54.068;12.114;2023-04-15T03:49:34;79.57;;;32.22;;
61471;SDS011;47337;54.068;12.114;2023-04-15T03:52:00;83.13;;;34.15;;
61471;SDS011;47337;54.068;12.114;2023-04-15T03:54:25;84.25;;;33.10;;
61471;SDS011;47337;54.068;12.114;2023-04-15T03:56:51;83.40;;;32.72;;
61471;SDS011;47337;54.068;12.114;2023-04-15T03:59:16;88.85;;;33.80;;
61471;SDS011;47337;54.068;12.114;2023-04-15T04:01:42;87.20;;;35.35;;
61471;SDS011;47337;54.068;12.114;2023-04-15T04:04:07;78.20;;;32.50;;
61471;SDS011;47337;54.068;12.114;2023-04-15T04:06:35;78.53;;;34.17;;
61471;SDS011;47337;54.068;12.114;2023-04-15T04:09:00;85.30;;;35.20;;
61471;SDS011;47337;54.068;12.114;2023-04-15T04:11:28;78.45;;;31.48;;
61471;SDS011;47337;54.068;12.114;2023-04-15T04:13:53;77.32;;;31.90;;
61471;SDS011;47337;54.068;12.114;2023-04-15T04:16:19;88.97;;;34.15;;
61471;SDS011;47337;54.068;12.114;2023-04-15T04:18:49;89.43;;;34.70;;
61471;SDS011;47337;54.068;12.114;2023-04-15T04:21:17;92.10;;;35.13;;
61471;SDS011;47337;54.068;12.114;2023-04-15T04:23:42;85.72;;;33.75;;
61471;SDS011;47337;54.068;12.114;2023-04-15T04:26:08;82.05;;;33.60;;
61471;SDS011;47337;54.068;12.114;2023-04-15T04:28:33;86.20;;;33.72;;
61471;SDS011;47337;54.068;12.114;2023-04-15T04:31:01;73.47;;;33.25;;
61471;SDS011;47337;54.068;12.114;2023-04-15T04:33:26;77.78;;;33.90;;
61471;SDS011;47337;54.068;12.114;2023-04-15T04:35:52;81.18;;;32.63;;
61471;SDS011;47337;54.068;12.114;2023-04-15T04:38:19;88.78;;;33.47;;
61471;SDS011;47337;54.068;12.114;2023-04-15T04:40:45;74.35;;;33.50;;
61471;SDS011;47337;54.068;12.114;2023-04-15T04:43:11;80.15;;;32.55;;
61471;SDS011;47337;54.068;12.114;2023-04-15T04:45:42;75.57;;;31.20;;
61471;SDS011;47337;54.068;12.114;2023-04-15T04:48:07;77.50;;;31.67;;
61471;SDS011;47337;54.068;12.114;2023-04-15T04:50:34;72.60;;;31.73;;
61471;SDS011;47337;54.068;12.114;2023-04-15T04:53:00;76.10;;;30.48;;
61471;SDS011;47337;54.068;12.114;2023-04-15T04:55:28;67.07;;;29.48;;
61471;SDS011;47337;54.068;12.114;2023-04-15T04:57:56;62.33;;;29.42;;
61471;SDS011;47337;54.068;12.114;2023-04-15T05:00:21;63.67;;;29.08;;
61471;SDS011;47337;54.068;12.114;2023-04-15T05:02:47;65.28;;;29.98;;
61471;SDS011;47337;54.068;12.114;2023-04-15T05:05:12;61.38;;;28.20;;
61471;SDS011;47337;54.068;12.114;2023-04-15T05:07:40;61.28;;;28.42;;
61471;SDS011;47337;54.068;12.114;2023-04-15T05:10:06;60.13;;;26.83;;
61471;SDS011;47337;54.068;12.114;2023-04-15T05:12:32;61.95;;;27.17;;
61471;SDS011;47337;54.068;12.114;2023-04-15T05:15:02;55.45;;;26.73;;
61471;SDS011;47337;54.068;12.114;2023-04-15T05:17:30;59.58;;;27.52;;
61471;SDS011;47337;54.068;12.114;2023-04-15T05:19:57;52.35;;;26.42;;
61471;SDS011;47337;54.068;12.114;2023-04-15T05:22:22;52.30;;;25.27;;
61471;SDS011;47337;54.068;12.114;2023-04-15T05:24:48;54.08;;;24.75;;
61471;SDS011;47337;54.068;12.114;2023-04-15T05:27:13;46.33;;;22.17;;
61471;SDS011;47337;54.068;12.114;2023-04-15T05:29:38;52.63;;;23.65;;
61471;SDS011;47337;54.068;12.114;2023-04-15T05:32:06;41.85;;;22.35;;
61471;SDS011;47337;54.068;12.114;2023-04-15T05:34:32;37.38;;;20.67;;
61471;SDS011;47337;54.068;12.114;2023-04-15T05:36:57;34.80;;;19.75;;
61471;SDS011;47337;54.068;12.114;2023-04-15T05:39:22;34.80;;;19.27;;
61471;SDS011;47337;54.068;12.114;2023-04-15T05:41:48;32.35;;;18.52;;
61471;SDS011;47337;54.068;12.114;2023-04-15T05:44:13;34.40;;;17.67;;
61471;SDS011;47337;54.068;12.114;2023-04-15T05:46:39;34.55;;;19.05;;
61471;SDS011;47337;54.068;12.114;2023-04-15T05:49:04;32.33;;;18.48;;
61471;SDS011;47337;54.068;12.114;2023-04-15T05:51:32;31.95;;;18.65;;
61471;SDS011;47337;54.068;12.114;2023-04-15T05:53:59;31.27;;;17.55;;
61471;SDS011;47337;54.068;12.114;2023-04-15T05:56:25;31.33;;;18.02;;
61471;SDS011;47337;54.068;12.114;2023-04-15T05:58:51;30.80;;;16.58;;
61471;SDS011;47337;54.068;12.114;2023-04-15T06:01:16;33.10;;;18.35;;
61471;SDS011;47337;54.068;12.114;2023-04-15T06:03:42;29.20;;;17.58;;
61471;SDS011;47337;54.068;12.114;2023-04-15T06:06:07;30.73;;;17.08;;
61471;SDS011;47337;54.068;12.114;2023-04-15T06:08:33;27.73;;;16.73;;
61471;SDS011;47337;54.068;12.114;2023-04-15T06:10:59;28.02;;;17.00;;
61471;SDS011;47337;54.068;12.114;2023-04-15T06:13:26;24.73;;;15.48;;
61471;SDS011;47337;54.068;12.114;2023-04-15T06:15:52;29.33;;;16.02;;
61471;SDS011;47337;54.068;12.114;2023-04-15T06:18:18;24.10;;;15.40;;
61471;SDS011;47337;54.068;12.114;2023-04-15T06:20:46;23.85;;;14.68;;
61471;SDS011;47337;54.068;12.114;2023-04-15T06:23:14;27.27;;;15.48;;
61471;SDS011;47337;54.068;12.114;2023-04-15T06:25:39;29.48;;;15.60;;
61471;SDS011;47337;54.068;12.114;2023-04-15T06:28:05;25.13;;;15.35;;
61471;SDS011;47337;54.068;12.114;2023-04-15T06:30:30;25.95;;;14.90;;
61471;SDS011;47337;54.068;12.114;2023-04-15T06:32:56;25.63;;;14.70;;
61471;SDS011;47337;54.068;12.114;2023-04-15T06:35:21;21.88;;;14.63;;
61471;SDS011;47337;54.068;12.114;2023-04-15T06:37:49;20.77;;;14.02;;
61471;SDS011;47337;54.068;12.114;2023-04-15T06:40:17;23.27;;;12.82;;
61471;SDS011;47337;54.068;12.114;2023-04-15T06:42:45;22.13;;;13.48;;
61471;SDS011;47337;54.068;12.114;2023-04-15T06:45:12;18.75;;;12.27;;
61471;SDS011;47337;54.068;12.114;2023-04-15T06:47:41;22.75;;;12.88;;
61471;SDS011;47337;54.068;12.114;2023-04-15T06:50:07;19.65;;;12.57;;
61471;SDS011;47337;54.068;12.114;2023-04-15T06:52:36;18.70;;;12.32;;
61471;SDS011;47337;54.068;12.114;2023-04-15T06:55:02;19.23;;;13.40;;
61471;SDS011;47337;54.068;12.114;2023-04-15T06:57:32;17.42;;;13.05;;
61471;SDS011;47337;54.068;12.114;2023-04-15T07:00:00;20.13;;;13.05;;
61471;SDS011;47337;54.068;12.114;2023-04-15T07:02:26;16.08;;;11.55;;
61471;SDS011;47337;54.068;12.114;2023-04-15T07:04:53;18.55;;;11.73;;
61471;SDS011;47337;54.068;12.114;2023-04-15T07:07:19;19.50;;;11.98;;
61471;SDS011;47337;54.068;12.114;2023-04-15T07:09:45;17.67;;;10.98;;
61471;SDS011;47337;54.068;12.114;2023-04-15T07:12:11;15.77;;;11.20;;
61471;SDS011;47337;54.068;12.114;2023-04-15T07:14:39;17.63;;;11.65;;
61471;SDS011;47337;54.068;12.114;2023-04-15T07:17:04;16.98;;;11.70;;
61471;SDS011;47337;54.068;12.114;2023-04-15T07:19:30;15.77;;;10.48;;
61471;SDS011;47337;54.068;12.114;2023-04-15T07:21:58;13.80;;;10.00;;
61471;SDS011;47337;54.068;12.114;2023-04-15T07:24:23;16.25;;;11.82;;
61471;SDS011;47337;54.068;12.114;2023-04-15T07:26:51;19.00;;;11.55;;
61471;SDS011;47337;54.068;12.114;2023-04-15T07:29:18;18.38;;;11.20;;
61471;SDS011;47337;54.068;12.114;2023-04-15T07:31:44;15.95;;;10.18;;
61471;SDS011;47337;54.068;12.114;2023-04-15T07:34:09;18.15;;;10.80;;
61471;SDS011;47337;54.068;12.114;2023-04-15T07:36:35;16.38;;;11.30;;
61471;SDS011;47337;54.068;12.114;2023-04-15T07:39:00;16.20;;;10.38;;
61471;SDS011;47337;54.068;12.114;2023-04-15T07:41:28;14.00;;;9.95;;
61471;SDS011;47337;54.068;12.114;2023-04-15T07:43:54;15.07;;;10.43;;
61471;SDS011;47337;54.068;12.114;2023-04-15T07:46:20;13.80;;;9.85;;
61471;SDS011;47337;54.068;12.114;2023-04-15T07:48:45;12.48;;;9.63;;
61471;SDS011;47337;54.068;12.114;2023-04-15T07:51:11;16.15;;;10.05;;
61471;SDS011;47337;54.068;12.114;2023-04-15T07:53:36;13.38;;;10.40;;
61471;SDS011;47337;54.068;12.114;2023-04-15T07:56:02;14.43;;;10.30;;
61471;SDS011;47337;54.068;12.114;2023-04-15T07:58:28;12.50;;;10.02;;
61471;SDS011;47337;54.068;12.114;2023-04-15T08:00:53;14.75;;;10.88;;
61471;SDS011;47337;54.068;12.114;2023-04-15T08:03:21;12.23;;;9.60;;
61471;SDS011;47337;54.068;12.114;2023-04-15T08:05:47;12.68;;;10.05;;
61471;SDS011;47337;54.068;12.114;2023-04-15T08:08:13;13.63;;;10.20;;
61471;SDS011;47337;54.068;12.114;2023-04-15T08:10:43;15.73;;;10.40;;
61471;SDS011;47337;54.068;12.114;2023-04-15T08:13:11;13.10;;;9.77;;
61471;SDS011;47337;54.068;12.114;2023-04-15T08:15:36;13.38;;;9.90;;
61471;SDS011;47337;54.068;12.114;2023-04-15T08:18:07;12.88;;;9.60;;
61471;SDS011;47337;54.068;12.114;2023-04-15T08:20:32;13.30;;;8.75;;
61471;SDS011;47337;54.068;12.114;2023-04-15T08:23:00;11.90;;;9.60;;
61471;SDS011;47337;54.068;12.114;2023-04-15T08:25:25;12.60;;;9.32;;
61471;SDS011;47337;54.068;12.114;2023-04-15T08:27:54;15.15;;;9.57;;
61471;SDS011;47337;54.068;12.114;2023-04-15T08:30:23;10.95;;;8.73;;
61471;SDS011;47337;54.068;12.114;2023-04-15T08:32:49;13.60;;;9.60;;
61471;SDS011;47337;54.068;12.114;2023-04-15T08:35:15;14.07;;;9.10;;
61471;SDS011;47337;54.068;12.114;2023-04-15T08:37:43;14.38;;;9.32;;
61471;SDS011;47337;54.068;12.114;2023-04-15T08:40:09;14.10;;;10.45;;
61471;SDS011;47337;54.068;12.114;2023-04-15T08:42:43;12.63;;;9.85;;
61471;SDS011;47337;54.068;12.114;2023-04-15T08:45:12;16.70;;;10.30;;
61471;SDS011;47337;54.068;12.114;2023-04-15T08:47:38;14.00;;;10.18;;
61471;SDS011;47337;54.068;12.114;2023-04-15T08:50:08;16.35;;;10.10;;
61471;SDS011;47337;54.068;12.114;2023-04-15T08:52:34;11.82;;;9.30;;
61471;SDS011;47337;54.068;12.114;2023-04-15T08:55:03;11.90;;;9.57;;
61471;SDS011;47337;54.068;12.114;2023-04-15T08:57:31;13.95;;;9.38;;
61471;SDS011;47337;54.068;12.114;2023-04-15T09:00:02;12.80;;;9.88;;
61471;SDS011;47337;54.068;12.114;2023-04-15T09:02:28;13.30;;;9.88;;
61471;SDS011;47337;54.068;12.114;2023-04-15T09:04:53;12.32;;;9.88;;
61471;SDS011;47337;54.068;12.114;2023-04-15T09:07:21;12.57;;;8.63;;
61471;SDS011;47337;54.068;12.114;2023-04-15T09:09:47;12.18;;;9.90;;
61471;SDS011;47337;54.068;12.114;2023-04-15T09:12:12;13.05;;;9.45;;
61471;SDS011;47337;54.068;12.114;2023-04-15T09:14:39;13.38;;;9.18;;
61471;SDS011;47337;54.068;12.114;2023-04-15T09:17:04;13.45;;;9.82;;
61471;SDS011;47337;54.068;12.114;2023-04-15T09:19:36;12.75;;;9.50;;
61471;SDS011;47337;54.068;12.114;2023-04-15T09:22:01;12.63;;;9.23;;
61471;SDS011;47337;54.068;12.114;2023-04-15T09:24:34;12.98;;;9.05;;
61471;SDS011;47337;54.068;12.114;2023-04-15T09:27:02;12.38;;;9.68;;
61471;SDS011;47337;54.068;12.114;2023-04-15T09:29:27;13.38;;;9.30;;
61471;SDS011;47337;54.068;12.114;2023-04-15T09:31:53;11.30;;;8.65;;
61471;SDS011;47337;54.068;12.114;2023-04-15T09:34:18;11.93;;;8.75;;
61471;SDS011;47337;54.068;12.114;2023-04-15T09:39:10;13.32;;;9.02;;
61471;SDS011;47337;54.068;12.114;2023-04-15T09:41:35;10.98;;;8.88;;
61471;SDS011;47337;54.068;12.114;2023-04-15T09:44:04;12.07;;;8.25;;
61471;SDS011;47337;54.068;12.114;2023-04-15T09:46:43;13.13;;;8.73;;
61471;SDS011;47337;54.068;12.114;2023-04-15T09:49:11;11.60;;;9.15;;
61471;SDS011;47337;54.068;12.114;2023-04-15T09:51:37;12.75;;;9.25;;
61471;SDS011;47337;54.068;12.114;2023-04-15T09:54:03;15.45;;;9.52;;
61471;SDS011;47337;54.068;12.114;2023-04-15T09:56:36;13.00;;;9.40;;
61471;SDS011;47337;54.068;12.114;2023-04-15T09:59:03;12.73;;;10.40;;
61471;SDS011;47337;54.068;12.114;2023-04-15T10:01:29;14.35;;;9.35;;
61471;SDS011;47337;54.068;12.114;2023-04-15T10:03:55;13.98;;;9.50;;
61471;SDS011;47337;54.068;12.114;2023-04-15T10:06:22;16.02;;;9.88;;
61471;SDS011;47337;54.068;12.114;2023-04-15T10:08:50;14.35;;;10.27;;
61471;SDS011;47337;54.068;12.114;2023-04-15T10:11:16;17.95;;;12.32;;
61471;SDS011;47337;54.068;12.114;2023-04-15T10:13:42;17.77;;;13.02;;
61471;SDS011;47337;54.068;12.114;2023-04-15T10:16:13;17.05;;;13.20;;
61471;SDS011;47337;54.068;12.114;2023-04-15T10:18:42;18.58;;;12.68;;
61471;SDS011;47337;54.068;12.114;2023-04-15T10:21:13;17.52;;;12.75;;
61471;SDS011;47337;54.068;12.114;2023-04-15T10:23:42;18.38;;;13.05;;
61471;SDS011;47337;54.068;12.114;2023-04-15T10:26:10;14.70;;;11.38;;
61471;SDS011;47337;54.068;12.114;2023-04-15T10:28:39;17.88;;;11.00;;
61471;SDS011;47337;54.068;12.114;2023-04-15T10:31:05;14.52;;;11.00;;
61471;SDS011;47337;54.068;12.114;2023-04-15T10:33:31;14.18;;;11.20;;
61471;SDS011;47337;54.068;12.114;2023-04-15T10:35:57;16.25;;;11.88;;
61471;SDS011;47337;54.068;12.114;2023-04-15T10:38:34;18.73;;;13.10;;
61471;SDS011;47337;54.068;12.114;2023-04-15T10:43:52;19.95;;;14.32;;
61471;SDS011;47337;54.068;12.114;2023-04-15T10:49:06;19.15;;;13.23;;
61471;SDS011;47337;54.068;12.114;2023-04-15T10:51:35;20.20;;;14.88;;
61471;SDS011;47337;54.068;12.114;2023-04-15T10:54:12;15.18;;;12.20;;
61471;SDS011;47337;54.068;12.114;2023-04-15T10:56:40;17.83;;;12.57;;
61471;SDS011;47337;54.068;12.114;2023-04-15T10:59:06;20.23;;;13.82;;
61471;SDS011;47337;54.068;12.114;2023-04-15T11:01:51;18.27;;;13.80;;
61471;SDS011;47337;54.068;12.114;2023-04-15T11:12:37;23.17;;;13.85;;
61471;SDS011;47337;54.068;12.114;2023-04-15T11:18:15;21.33;;;14.10;;
61471;SDS011;47337;54.068;12.114;2023-04-15T11:20:51;20.45;;;14.10;;
61471;SDS011;47337;54.068;12.114;2023-04-15T11:23:31;17.35;;;11.88;;
61471;SDS011;47337;54.068;12.114;2023-04-15T11:26:05;18.52;;;12.63;;
61471;SDS011;47337;54.068;12.114;2023-04-15T11:28:36;16.63;;;11.70;;
61471;SDS011;47337;54.068;12.114;2023-04-15T11:31:08;18.88;;;12.35;;
61471;SDS011;47337;54.068;12.114;2023-04-15T11:33:35;20.42;;;12.95;;
61471;SDS011;47337;54.068;12.114;2023-04-15T11:36:01;18.33;;;13.48;;
61471;SDS011;47337;54.068;12.114;2023-04-15T11:38:28;18.50;;;13.85;;
61471;SDS011;47337;54.068;12.114;2023-04-15T11:40:53;19.98;;;14.27;;
61471;SDS011;47337;54.068;12.114;2023-04-15T11:43:19;16.58;;;13.50;;
61471;SDS011;47337;54.068;12.114;2023-04-15T11:45:56;18.75;;;13.70;;
61471;SDS011;47337;54.068;12.114;2023-04-15T11:50:52;21.73;;;15.05;;
61471;SDS011;47337;54.068;12.114;2023-04-15T11:53:23;23.60;;;15.48;;
61471;SDS011;47337;54.068;12.114;2023-04-15T11:55:50;21.20;;;14.70;;
61471;SDS011;47337;54.068;12.114;2023-04-15T12:00:54;20.92;;;15.60;;
61471;SDS011;47337;54.068;12.114;2023-04-15T12:03:27;23.88;;;16.23;;
61471;SDS011;47337;54.068;12.114;2023-04-15T12:06:04;18.92;;;14.30;;
61471;SDS011;47337;54.068;12.114;2023-04-15T12:11:21;20.10;;;13.88;;
61471;SDS011;47337;54.068;12.114;2023-04-15T12:13:55;21.83;;;14.35;;
61471;SDS011;47337;54.068;12.114;2023-04-15T12:16:22;21.52;;;14.15;;
61471;SDS011;47337;54.068;12.114;2023-04-15T12:18:58;17.48;;;12.98;;
61471;SDS011;47337;54.068;12.114;2023-04-15T12:21:32;21.25;;;13.65;;
61471;SDS011;47337;54.068;12.114;2023-04-15T12:24:03;19.65;;;13.20;;
61471;SDS011;47337;54.068;12.114;2023-04-15T12:26:33;18.23;;;12.52;;
61471;SDS011;47337;54.068;12.114;2023-04-15T12:29:05;15.52;;;11.00;;
61471;SDS011;47337;54.068;12.114;2023-04-15T12:31:36;17.85;;;12.07;;
61471;SDS011;47337;54.068;12.114;2023-04-15T12:34:10;15.02;;;12.18;;
61471;SDS011;47337;54.068;12.114;2023-04-15T12:36:35;17.77;;;11.75;;
61471;SDS011;47337;54.068;12.114;2023-04-15T12:39:02;18.88;;;11.77;;
61471;SDS011;47337;54.068;12.114;2023-04-15T12:41:28;16.38;;;11.65;;
61471;SDS011;47337;54.068;12.114;2023-04-15T12:43:53;16.08;;;11.60;;
61471;SDS011;47337;54.068;12.114;2023-04-15T12:46:21;16.77;;;11.82;;
61471;SDS011;47337;54.068;12.114;2023-04-15T12:48:46;16.90;;;13.02;;
61471;SDS011;47337;54.068;12.114;2023-04-15T12:51:12;15.32;;;12.32;;
61471;SDS011;47337;54.068;12.114;2023-04-15T12:53:38;22.35;;;13.40;;
61471;SDS011;47337;54.068;12.114;2023-04-15T12:56:03;20.17;;;12.65;;
61471;SDS011;47337;54.068;12.114;2023-04-15T12:58:30;20.98;;;13.93;;
61471;SDS011;47337;54.068;12.114;2023-04-15T13:00:58;18.25;;;13.60;;
61471;SDS011;47337;54.068;12.114;2023-04-15T13:03:24;20.98;;;14.75;;
61471;SDS011;47337;54.068;12.114;2023-04-15T13:05:49;17.45;;;12.98;;
61471;SDS011;47337;54.068;12.114;2023-04-15T13:08:17;19.85;;;14.10;;
61471;SDS011;47337;54.068;12.114;2023-04-15T13:10:45;21.20;;;14.38;;
61471;SDS011;47337;54.068;12.114;2023-04-15T13:13:10;18.17;;;13.73;;
61471;SDS011;47337;54.068;12.114;2023-04-15T13:15:36;20.75;;;14.90;;
61471;SDS011;47337;54.068;12.114;2023-04-15T13:18:02;21.00;;;14.02;;
61471;SDS011;47337;54.068;12.114;2023-04-15T13:20:29;18.75;;;14.32;;
61471;SDS011;47337;54.068;12.114;2023-04-15T13:22:54;20.75;;;14.95;;
61471;SDS011;47337;54.068;12.114;2023-04-15T13:25:22;20.95;;;14.18;;
61471;SDS011;47337;54.068;12.114;2023-04-15T13:27:50;20.23;;;13.85;;
61471;SDS011;47337;54.068;12.114;2023-04-15T13:30:17;20.02;;;14.95;;
61471;SDS011;47337;54.068;12.114;2023-04-15T13:32:43;18.98;;;14.00;;
61471;SDS011;47337;54.068;12.114;2023-04-15T13:35:13;20.20;;;13.68;;
61471;SDS011;47337;54.068;12.114;2023-04-15T13:37:38;17.80;;;13.35;;
61471;SDS011;47337;54.068;12.114;2023-04-15T13:40:04;22.17;;;14.43;;
61471;SDS011;47337;54.068;12.114;2023-04-15T13:42:31;18.10;;;13.07;;
61471;SDS011;47337;54.068;12.114;2023-04-15T13:44:56;21.58;;;14.70;;
61471;SDS011;47337;54.068;12.114;2023-04-15T13:47:22;20.63;;;14.98;;
61471;SDS011;47337;54.068;12.114;2023-04-15T13:49:50;21.17;;;15.57;;
61471;SDS011;47337;54.068;12.114;2023-04-15T13:52:16;19.08;;;14.27;;
61471;SDS011;47337;54.068;12.114;2023-04-15T13:54:42;26.55;;;15.70;;
61471;SDS011;47337;54.068;12.114;2023-04-15T13:57:07;20.75;;;14.85;;
61471;SDS011;47337;54.068;12.114;2023-04-15T13:59:33;22.08;;;15.13;;
61471;SDS011;47337;54.068;12.114;2023-04-15T14:02:01;26.52;;;15.05;;
61471;SDS011;47337;54.068;12.114;2023-04-15T14:04:26;20.63;;;14.52;;
61471;SDS011;47337;54.068;12.114;2023-04-15T14:06:51;21.60;;;14.60;;
61471;SDS011;47337;54.068;12.114;2023-04-15T14:09:20;24.13;;;15.70;;
61471;SDS011;47337;54.068;12.114;2023-04-15T14:11:47;20.58;;;15.27;;
61471;SDS011;47337;54.068;12.114;2023-04-15T14:14:18;23.60;;;15.30;;
61471;SDS011;47337;54.068;12.114;2023-04-15T14:16:46;26.88;;;16.13;;
61471;SDS011;47337;54.068;12.114;2023-04-15T14:19:12;22.95;;;15.82;;
61471;SDS011;47337;54.068;12.114;2023-04-15T14:21:37;27.95;;;16.70;;
61471;SDS011;47337;54.068;12.114;2023-04-15T14:24:03;25.50;;;16.75;;
61471;SDS011;47337;54.068;12.114;2023-04-15T14:26:28;25.65;;;16.83;;
61471;SDS011;47337;54.068;12.114;2023-04-15T14:28:54;26.25;;;16.73;;
61471;SDS011;47337;54.068;12.114;2023-04-15T14:31:21;23.83;;;16.20;;
61471;SDS011;47337;54.068;12.114;2023-04-15T14:33:47;25.98;;;16.58;;
61471;SDS011;47337;54.068;12.114;2023-04-15T14:36:12;23.30;;;15.32;;